createdAt,value
2022-08-20T00:01:14.182Z,99979.00
2022-08-20T00:03:44.832Z,99984.00
2022-08-20T00:06:24.009Z,99981.00
2022-08-20T00:08:51.295Z,99976.00
2022-08-20T00:11:23.522Z,99983.00
2022-08-20T00:13:57.711Z,99989.00
2022-08-20T00:16:28.355Z,99989.00
2022-08-20T00:18:55.554Z,99981.00
2022-08-20T00:21:23.362Z,99980.00
2022-08-20T00:23:55.603Z,99972.00
2022-08-20T00:26:24.644Z,99966.00
2022-08-20T00:28:52.150Z,99956.00
2022-08-20T00:31:25.990Z,99965.00
2022-08-20T00:33:53.657Z,99976.00
2022-08-20T00:36:22.050Z,99975.00
2022-08-20T00:38:59.437Z,99971.00
2022-08-20T00:41:28.564Z,99960.00
2022-08-20T00:44:10.320Z,99956.00
2022-08-20T00:46:38.761Z,99940.00
2022-08-20T00:49:09.592Z,99937.00
2022-08-20T00:51:53.307Z,99917.00
2022-08-20T00:54:38.251Z,99920.00
2022-08-20T00:57:43.496Z,99933.00
2022-08-20T01:00:25.051Z,99947.00
2022-08-20T01:02:52.808Z,99947.00
2022-08-20T01:05:21.389Z,99937.00
2022-08-20T01:07:57.022Z,99940.00
2022-08-20T01:10:29.768Z,99938.00
2022-08-20T01:12:59.910Z,99941.00
2022-08-20T01:15:31.963Z,99936.00
2022-08-20T01:18:01.916Z,99931.00
2022-08-20T01:20:36.792Z,99928.00
2022-08-20T01:23:30.474Z,99930.00
2022-08-20T01:26:22.709Z,99922.00
2022-08-20T01:29:02.401Z,99937.00
2022-08-20T01:31:34.193Z,99938.00
2022-08-20T01:34:04.710Z,99942.00
2022-08-20T01:36:46.423Z,99938.00
2022-08-20T01:39:25.358Z,99946.00
2022-08-20T01:41:52.314Z,99944.00
2022-08-20T01:44:21.244Z,99940.00
2022-08-20T01:46:51.914Z,99945.00
2022-08-20T01:49:32.645Z,99950.00
2022-08-20T01:52:07.552Z,99940.00
2022-08-20T01:54:35.690Z,99925.00
2022-08-20T01:57:17.547Z,99932.00
2022-08-20T01:59:45.172Z,99941.00
2022-08-20T02:02:13.259Z,99945.00
2022-08-20T02:04:42.440Z,99931.00
2022-08-20T02:07:16.873Z,99946.00
2022-08-20T02:09:45.244Z,99957.00
2022-08-20T02:12:14.399Z,99952.00
2022-08-20T02:14:49.260Z,99949.00
2022-08-20T02:17:18.168Z,99944.00
2022-08-20T02:19:52.194Z,99945.00
2022-08-20T02:22:35.944Z,99955.00
2022-08-20T02:25:09.001Z,99961.00
2022-08-20T02:27:38.728Z,99969.00
2022-08-20T02:30:28.101Z,99971.00
2022-08-20T02:32:58.656Z,99961.00
2022-08-20T02:35:26.634Z,99968.00
2022-08-20T02:37:54.653Z,99968.00
2022-08-20T02:40:31.241Z,99967.00
2022-08-20T02:43:00.876Z,99955.00
2022-08-20T02:45:30.066Z,99963.00
2022-08-20T02:47:59.042Z,99964.00
2022-08-20T02:50:27.104Z,99968.00
2022-08-20T02:52:54.500Z,99980.00
2022-08-20T02:55:27.469Z,99978.00
2022-08-20T02:58:00.230Z,99969.00
2022-08-20T03:00:32.212Z,99980.00
2022-08-20T03:03:08.340Z,99982.00
2022-08-20T03:05:37.084Z,99992.00
2022-08-20T03:08:09.426Z,99992.00
2022-08-20T03:10:41.007Z,99993.00
2022-08-20T03:13:12.399Z,99994.00
2022-08-20T03:15:55.254Z,99997.00
2022-08-20T03:18:29.184Z,100008.00
2022-08-20T03:20:56.351Z,100010.00
2022-08-20T03:23:24.378Z,100005.00
2022-08-20T03:25:51.330Z,100007.00
2022-08-20T03:28:19.641Z,100003.00
2022-08-20T03:30:48.414Z,100010.00
2022-08-20T03:33:16.448Z,100000.00
2022-08-20T03:35:43.922Z,99992.00
2022-08-20T03:38:14.458Z,100006.00
2022-08-20T03:40:42.526Z,99999.00
2022-08-20T03:43:10.668Z,99988.00
2022-08-20T03:45:40.726Z,99994.00
2022-08-20T03:48:15.170Z,99993.00
2022-08-20T03:50:43.458Z,99996.00
2022-08-20T03:53:14.746Z,100003.00
2022-08-20T03:55:53.945Z,100004.00
2022-08-20T03:58:22.181Z,99997.00
2022-08-20T04:01:06.481Z,99994.00
2022-08-20T04:03:34.564Z,100000.00
2022-08-20T04:06:01.844Z,100004.00
2022-08-20T04:08:30.394Z,100002.00
2022-08-20T04:10:59.745Z,100003.00
2022-08-20T04:13:29.985Z,99993.00
2022-08-20T04:15:58.374Z,100003.00
2022-08-20T04:18:26.552Z,100009.00
2022-08-20T04:20:54.362Z,100005.00
2022-08-20T04:23:22.679Z,100009.00
2022-08-20T04:25:50.364Z,100013.00
2022-08-20T04:28:28.270Z,100022.00
2022-08-20T04:30:58.956Z,100015.00
2022-08-20T04:33:34.186Z,100020.00
2022-08-20T04:36:05.837Z,100016.00
2022-08-20T04:38:47.917Z,100021.00
2022-08-20T04:41:23.528Z,100019.00
2022-08-20T04:43:54.047Z,100011.00
2022-08-20T04:46:25.982Z,100010.00
2022-08-20T04:48:54.018Z,100012.00
2022-08-20T04:51:23.008Z,99993.00
2022-08-20T04:53:53.687Z,100008.00
2022-08-20T04:56:29.471Z,100002.00
2022-08-20T04:59:00.470Z,99997.00
2022-08-20T05:01:28.691Z,99986.00
2022-08-20T05:03:57.612Z,99998.00
2022-08-20T05:06:31.323Z,100008.00
2022-08-20T05:09:00.837Z,100006.00
2022-08-20T05:11:34.410Z,100014.00
2022-08-20T05:14:07.889Z,100012.00
2022-08-20T05:16:39.635Z,100005.00
2022-08-20T05:19:11.329Z,100007.00
2022-08-20T05:21:39.398Z,100011.00
2022-08-20T05:24:07.786Z,99996.00
2022-08-20T05:26:35.118Z,100001.00
2022-08-20T05:29:05.080Z,100006.00
2022-08-20T05:31:33.903Z,99993.00
2022-08-20T05:46:16.682Z,99999.00
2022-08-20T05:48:43.730Z,99991.00
2022-08-20T05:51:15.021Z,99983.00
2022-08-20T05:53:42.193Z,99985.00
2022-08-20T05:56:11.244Z,99976.00
2022-08-20T05:58:38.911Z,99965.00
2022-08-20T06:01:06.204Z,99967.00
2022-08-20T06:03:51.992Z,99971.00
2022-08-20T06:06:44.755Z,99968.00
2022-08-20T06:09:06.147Z,99969.00
2022-08-20T06:11:37.294Z,99974.00
2022-08-20T06:14:05.573Z,99967.00
2022-08-20T06:16:32.761Z,99974.00
2022-08-20T06:19:00.116Z,99973.00
2022-08-20T06:21:30.149Z,99968.00
2022-08-20T06:24:00.948Z,99971.00
2022-08-20T06:26:31.107Z,99971.00
2022-08-20T06:29:03.795Z,99980.00
2022-08-20T06:31:30.858Z,99984.00
2022-08-20T06:33:58.151Z,99986.00
2022-08-20T06:36:25.250Z,99996.00
2022-08-20T06:38:54.872Z,99997.00
2022-08-20T06:41:21.928Z,100002.00
2022-08-20T06:43:49.138Z,100002.00
2022-08-20T06:46:16.262Z,100001.00
2022-08-20T06:48:43.242Z,100000.00
2022-08-20T06:51:10.362Z,100005.00
2022-08-20T06:53:37.402Z,100014.00
2022-08-20T06:56:04.757Z,100014.00
2022-08-20T06:58:38.391Z,100014.00
2022-08-20T07:01:13.750Z,100014.00
2022-08-20T07:03:55.423Z,100023.00
2022-08-20T07:06:25.638Z,100021.00
2022-08-20T07:08:54.472Z,100024.00
2022-08-20T07:11:27.061Z,100009.00
2022-08-20T07:13:57.044Z,100029.00
2022-08-20T07:16:25.599Z,100024.00
2022-08-20T07:18:52.627Z,100021.00
2022-08-20T07:21:19.795Z,100026.00
2022-08-20T07:23:48.915Z,100022.00
2022-08-20T07:26:16.476Z,100034.00
2022-08-20T07:28:43.580Z,100039.00
2022-08-20T07:31:30.509Z,100041.00
2022-08-20T07:33:59.733Z,100032.00
2022-08-20T07:36:28.173Z,100032.00
2022-08-20T07:38:58.734Z,100044.00
2022-08-20T07:41:26.019Z,100043.00
2022-08-20T07:43:53.080Z,100037.00
2022-08-20T07:46:21.610Z,100040.00
2022-08-20T07:48:50.463Z,100042.00
2022-08-20T07:51:22.679Z,100056.00
2022-08-20T07:53:51.777Z,100058.00
2022-08-20T07:56:24.522Z,100058.00
2022-08-20T07:58:55.602Z,100065.00
2022-08-20T08:01:28.671Z,100070.00
2022-08-20T08:03:57.543Z,100070.00
2022-08-20T08:06:30.494Z,100075.00
2022-08-20T08:09:04.513Z,100074.00
2022-08-20T08:11:37.899Z,100088.00
2022-08-20T08:14:09.748Z,100084.00
2022-08-20T08:16:38.228Z,100084.00
2022-08-20T08:19:12.096Z,100075.00
2022-08-20T08:21:39.316Z,100078.00
2022-08-20T08:24:06.384Z,100079.00
2022-08-20T08:26:33.467Z,100069.00
2022-08-20T08:29:00.464Z,100073.00
2022-08-20T08:31:27.532Z,100065.00
2022-08-20T08:33:55.538Z,100077.00
2022-08-20T08:36:22.528Z,100076.00
2022-08-20T08:38:49.783Z,100081.00
2022-08-20T08:41:39.604Z,100067.00
2022-08-20T08:44:21.839Z,100068.00
2022-08-20T08:46:56.867Z,100066.00
2022-08-20T08:49:37.740Z,100077.00
2022-08-20T08:52:22.340Z,100079.00
2022-08-20T08:54:56.905Z,100073.00
2022-08-20T08:57:25.098Z,100062.00
2022-08-20T09:00:04.923Z,100057.00
2022-08-20T09:02:34.935Z,100063.00
2022-08-20T09:05:15.996Z,100066.00
2022-08-20T09:07:49.690Z,100062.00
2022-08-20T09:10:22.891Z,100060.00
2022-08-20T09:12:52.023Z,100046.00
2022-08-20T09:15:21.231Z,100059.00
2022-08-20T09:17:48.433Z,100056.00
2022-08-20T09:20:15.582Z,100064.00
2022-08-20T09:22:42.560Z,100061.00
2022-08-20T09:25:12.550Z,100060.00
2022-08-20T09:27:41.506Z,100058.00
2022-08-20T09:30:11.984Z,100057.00
2022-08-20T09:32:39.118Z,100057.00
2022-08-20T09:35:09.448Z,100068.00
2022-08-20T09:37:38.097Z,100047.00
2022-08-20T09:40:08.764Z,100056.00
2022-08-20T09:42:41.309Z,100050.00
2022-08-20T09:45:12.839Z,100058.00
2022-08-20T09:47:46.838Z,100066.00
2022-08-20T09:50:30.976Z,100073.00
2022-08-20T09:53:01.202Z,100068.00
2022-08-20T09:55:44.882Z,100059.00
2022-08-20T09:58:14.886Z,100066.00
2022-08-20T10:00:41.944Z,100055.00
2022-08-20T10:03:08.860Z,100060.00
2022-08-20T10:05:35.948Z,100062.00
2022-08-20T10:08:07.911Z,100064.00
2022-08-20T10:10:36.091Z,100042.00
2022-08-20T10:13:03.317Z,100054.00
2022-08-20T10:15:31.990Z,100043.00
2022-08-20T10:18:04.126Z,100046.00
2022-08-20T10:20:31.192Z,100042.00
2022-08-20T10:22:58.376Z,100043.00
2022-08-20T10:25:25.382Z,100038.00
2022-08-20T10:27:52.740Z,100040.00
2022-08-20T10:30:19.766Z,100047.00
2022-08-20T10:32:47.601Z,100045.00
2022-08-20T10:35:15.029Z,100062.00
2022-08-20T10:37:42.061Z,100049.00
2022-08-20T10:40:10.282Z,100049.00
2022-08-20T10:42:41.926Z,100050.00
2022-08-20T10:45:12.710Z,100039.00
2022-08-20T10:47:40.402Z,100026.00
2022-08-20T10:50:12.524Z,100034.00
2022-08-20T10:52:40.148Z,100047.00
2022-08-20T10:55:08.725Z,100046.00
2022-08-20T10:57:38.546Z,100039.00
2022-08-20T11:00:10.679Z,100039.00
2022-08-20T11:02:38.260Z,100038.00
2022-08-20T11:05:06.879Z,100025.00
2022-08-20T11:07:50.569Z,100035.00
2022-08-20T11:10:27.650Z,100025.00
2022-08-20T11:12:55.430Z,100025.00
2022-08-20T11:15:22.418Z,100027.00
2022-08-20T11:17:49.457Z,100027.00
2022-08-20T11:20:20.698Z,100024.00
2022-08-20T11:22:48.246Z,100016.00
2022-08-20T11:25:15.360Z,100010.00
2022-08-20T11:27:46.404Z,100014.00
2022-08-20T11:30:29.316Z,100016.00
2022-08-20T11:32:57.786Z,100025.00
2022-08-20T11:35:48.663Z,100021.00
2022-08-20T11:38:14.379Z,100017.00
2022-08-20T11:40:41.410Z,100021.00
2022-08-20T11:43:14.521Z,100024.00
2022-08-20T11:45:46.267Z,100021.00
2022-08-20T11:48:13.889Z,100021.00
2022-08-20T11:50:40.962Z,100026.00
2022-08-20T11:53:08.164Z,100021.00
2022-08-20T11:55:36.427Z,100030.00
2022-08-20T11:58:04.466Z,100022.00
2022-08-20T12:00:34.135Z,100027.00
2022-08-20T12:03:05.027Z,100018.00
2022-08-20T12:05:33.136Z,100032.00
2022-08-20T12:08:03.894Z,100035.00
2022-08-20T12:10:31.795Z,100032.00
2022-08-20T12:12:59.401Z,100028.00
2022-08-20T12:15:27.589Z,100031.00
2022-08-20T12:17:55.937Z,100029.00
2022-08-20T12:20:24.707Z,100034.00
2022-08-20T12:22:53.948Z,100021.00
2022-08-20T12:25:21.480Z,100029.00
2022-08-20T12:27:48.483Z,100027.00
2022-08-20T12:30:21.818Z,100039.00
2022-08-20T12:32:49.376Z,100051.00
2022-08-20T12:35:18.882Z,100047.00
2022-08-20T12:37:47.202Z,100042.00
2022-08-20T12:40:32.231Z,100039.00
2022-08-20T12:43:02.601Z,100038.00
2022-08-20T12:45:31.476Z,100038.00
2022-08-20T12:48:12.271Z,100032.00
2022-08-20T12:50:42.944Z,100026.00
2022-08-20T12:53:10.160Z,100027.00
2022-08-20T12:55:37.489Z,100017.00
2022-08-20T12:58:09.330Z,100025.00
2022-08-20T13:00:43.223Z,100025.00
2022-08-20T13:03:12.917Z,100015.00
2022-08-20T13:05:41.075Z,100020.00
2022-08-20T13:08:11.693Z,100013.00
2022-08-20T13:10:45.575Z,100003.00
2022-08-20T13:13:17.423Z,99995.00
2022-08-20T13:15:49.628Z,100004.00
2022-08-20T13:18:16.895Z,99996.00
2022-08-20T13:20:44.070Z,100012.00
2022-08-20T13:23:11.089Z,100004.00
2022-08-20T13:25:38.149Z,100012.00
2022-08-20T13:28:05.999Z,99992.00
2022-08-20T13:30:39.441Z,100018.00
2022-08-20T13:33:06.619Z,100015.00
2022-08-20T13:35:33.706Z,100015.00
2022-08-20T13:38:00.974Z,100022.00
2022-08-20T13:40:28.259Z,100025.00
2022-08-20T13:42:55.401Z,100026.00
2022-08-20T13:45:22.821Z,100022.00
2022-08-20T13:47:55.565Z,100019.00
2022-08-20T13:50:25.791Z,100019.00
2022-08-20T13:52:53.179Z,100018.00
2022-08-20T13:55:24.459Z,100012.00
2022-08-20T13:57:56.426Z,100013.00
2022-08-20T14:00:32.536Z,100010.00
2022-08-20T14:03:06.708Z,100010.00
2022-08-20T14:05:34.848Z,100004.00
2022-08-20T14:08:24.371Z,100004.00
2022-08-20T14:10:51.900Z,100010.00
2022-08-20T14:13:22.957Z,100006.00
2022-08-20T14:15:50.776Z,100007.00
2022-08-20T14:18:18.068Z,100011.00
2022-08-20T14:20:45.868Z,99987.00
2022-08-20T14:23:13.700Z,99995.00
2022-08-20T14:25:41.496Z,100002.00
2022-08-20T14:28:18.092Z,100003.00
2022-08-20T14:30:53.076Z,100003.00
2022-08-20T14:33:24.167Z,100005.00
2022-08-20T14:35:52.121Z,100014.00
2022-08-20T14:38:19.217Z,99993.00
2022-08-20T14:40:47.313Z,99998.00
2022-08-20T14:43:14.330Z,100004.00
2022-08-20T14:45:41.371Z,100007.00
2022-08-20T14:48:09.393Z,100012.00
2022-08-20T14:50:38.026Z,100015.00
2022-08-20T14:53:05.637Z,100019.00
2022-08-20T14:55:37.602Z,100020.00
2022-08-20T14:58:11.239Z,100022.00
2022-08-20T15:00:39.076Z,100033.00
2022-08-20T15:03:06.127Z,100034.00
2022-08-20T15:05:33.584Z,100032.00
2022-08-20T15:08:00.644Z,100030.00
2022-08-20T15:10:31.933Z,100035.00
2022-08-20T15:13:04.680Z,100037.00
2022-08-20T15:15:31.720Z,100035.00
2022-08-20T15:18:06.785Z,100041.00
2022-08-20T15:20:36.639Z,100047.00
2022-08-20T15:23:06.333Z,100041.00
2022-08-20T15:25:37.689Z,100052.00
2022-08-20T15:28:09.059Z,100044.00
2022-08-20T15:30:39.484Z,100047.00
2022-08-20T15:33:07.570Z,100056.00
2022-08-20T15:35:35.172Z,100048.00
2022-08-20T15:38:02.341Z,100048.00
2022-08-20T15:40:32.630Z,100046.00
2022-08-20T15:43:02.654Z,100051.00
2022-08-20T15:45:30.689Z,100046.00
2022-08-20T15:48:13.323Z,100048.00
2022-08-20T15:51:22.358Z,100049.00
2022-08-20T15:54:13.935Z,100048.00
2022-08-20T15:57:07.366Z,100053.00
2022-08-20T16:00:24.451Z,100067.00
2022-08-20T16:03:13.263Z,100063.00
2022-08-20T16:06:23.585Z,100083.00
2022-08-20T16:09:21.546Z,100073.00
2022-08-20T16:12:07.708Z,100066.00
2022-08-20T16:14:44.872Z,100056.00
2022-08-20T16:17:22.764Z,100054.00
2022-08-20T16:20:09.096Z,100056.00
2022-08-20T16:22:43.353Z,100059.00
2022-08-20T16:25:12.920Z,100064.00
2022-08-20T16:28:28.206Z,100069.00
2022-08-20T16:31:11.994Z,100059.00
2022-08-20T16:34:34.074Z,100062.00
2022-08-20T16:37:10.446Z,100068.00
2022-08-20T16:40:15.489Z,100077.00
2022-08-20T16:42:47.657Z,100066.00
2022-08-20T16:45:33.690Z,100054.00
2022-08-20T16:48:06.811Z,100053.00
2022-08-20T16:51:03.110Z,100057.00
2022-08-20T16:53:30.373Z,100051.00
2022-08-20T16:55:57.600Z,100060.00
2022-08-20T16:58:25.175Z,100057.00
2022-08-20T17:01:07.924Z,100057.00
2022-08-20T17:03:40.301Z,100059.00
2022-08-20T17:06:25.866Z,100050.00
2022-08-20T17:08:53.883Z,100062.00
2022-08-20T17:11:33.185Z,100073.00
2022-08-20T17:14:18.204Z,100079.00
2022-08-20T17:16:52.813Z,100091.00
2022-08-20T17:19:31.182Z,100093.00
2022-08-20T17:22:20.820Z,100093.00
2022-08-20T17:24:50.031Z,100088.00
2022-08-20T17:27:31.224Z,100080.00
2022-08-20T17:30:20.100Z,100076.00
2022-08-20T17:33:07.137Z,100064.00
2022-08-20T17:35:44.121Z,100080.00
2022-08-20T17:38:45.911Z,100087.00
2022-08-20T17:41:31.429Z,100081.00
2022-08-20T17:44:21.199Z,100091.00
2022-08-20T17:46:50.569Z,100084.00
2022-08-20T17:49:41.030Z,100089.00
2022-08-20T17:52:28.061Z,100087.00
2022-08-20T17:54:55.165Z,100081.00
2022-08-20T17:57:33.187Z,100080.00
2022-08-20T18:00:25.433Z,100087.00
2022-08-20T18:03:01.238Z,100099.00
2022-08-20T18:05:34.731Z,100103.00
2022-08-20T18:08:13.925Z,100102.00
2022-08-20T18:11:03.708Z,100097.00
2022-08-20T18:14:19.885Z,100113.00
2022-08-20T18:17:41.348Z,100127.00
2022-08-20T18:20:16.656Z,100126.00
2022-08-20T18:22:55.300Z,100131.00
2022-08-20T18:25:26.423Z,100135.00
2022-08-20T18:28:03.254Z,100127.00
2022-08-20T18:30:33.044Z,100135.00
2022-08-20T18:33:09.163Z,100127.00
2022-08-20T18:35:46.256Z,100124.00
2022-08-20T18:38:22.367Z,100129.00
2022-08-20T18:40:54.588Z,100126.00
2022-08-20T18:43:30.625Z,100113.00
2022-08-20T18:46:12.187Z,100106.00
2022-08-20T18:48:59.595Z,100085.00
2022-08-20T18:51:50.014Z,100089.00
2022-08-20T18:54:32.672Z,100096.00
2022-08-20T18:57:24.211Z,100096.00
2022-08-20T19:00:17.549Z,100113.00
2022-08-20T19:03:14.076Z,100085.00
2022-08-20T19:06:06.052Z,100074.00
2022-08-20T19:09:05.025Z,100083.00
2022-08-20T19:11:56.865Z,100084.00
2022-08-20T19:14:58.593Z,100065.00
2022-08-20T19:18:09.903Z,100052.00
2022-08-20T19:20:57.960Z,100051.00
2022-08-20T19:23:29.249Z,100033.00
2022-08-20T19:26:03.961Z,100032.00
2022-08-20T19:28:46.862Z,100034.00
2022-08-20T19:31:27.361Z,100040.00
2022-08-20T19:34:21.476Z,100037.00
2022-08-20T19:37:50.813Z,100066.00
2022-08-20T19:40:39.032Z,100067.00
2022-08-20T19:43:16.397Z,100051.00
2022-08-20T19:45:50.672Z,100060.00
2022-08-20T19:48:41.894Z,100058.00
2022-08-20T19:52:29.264Z,100058.00
2022-08-20T19:55:02.824Z,100057.00
2022-08-20T19:57:31.029Z,100044.00
2022-08-20T20:00:12.896Z,100028.00
2022-08-20T20:02:41.579Z,100031.00
2022-08-20T20:05:11.261Z,100026.00
2022-08-20T20:07:49.698Z,100027.00
2022-08-20T20:10:35.495Z,100048.00
2022-08-20T20:13:21.255Z,100066.00
2022-08-20T20:15:55.036Z,100078.00
2022-08-20T20:18:27.650Z,100092.00
2022-08-20T20:21:41.190Z,100081.00
2022-08-20T20:24:10.878Z,100060.00
2022-08-20T20:26:42.175Z,100059.00
2022-08-20T20:29:16.545Z,100069.00
2022-08-20T20:32:00.147Z,100062.00
2022-08-20T20:34:55.548Z,100062.00
2022-08-20T20:37:50.124Z,100064.00
2022-08-20T20:40:45.468Z,100056.00
2022-08-20T20:43:30.552Z,100064.00
2022-08-20T20:46:18.109Z,100061.00
2022-08-20T20:49:08.411Z,100050.00
2022-08-20T20:51:51.847Z,100037.00
2022-08-20T20:54:30.604Z,100052.00
2022-08-20T20:57:01.988Z,100055.00
2022-08-20T20:59:32.070Z,100047.00
2022-08-20T21:01:59.487Z,100055.00
2022-08-20T21:04:27.217Z,100062.00
2022-08-20T21:06:58.460Z,100055.00
2022-08-20T21:09:25.944Z,100055.00
2022-08-20T21:11:53.474Z,100053.00
2022-08-20T21:14:20.667Z,100065.00
2022-08-20T21:16:48.210Z,100102.00
2022-08-20T21:19:19.954Z,100118.00
2022-08-20T21:21:47.079Z,100123.00
2022-08-20T21:24:14.274Z,100088.00
2022-08-20T21:26:41.693Z,100074.00
2022-08-20T21:29:13.298Z,100094.00
2022-08-20T21:31:44.712Z,100092.00
2022-08-20T21:34:15.798Z,100094.00
2022-08-20T21:36:43.197Z,100066.00
2022-08-20T21:39:11.108Z,100069.00
2022-08-20T21:41:42.617Z,100054.00
2022-08-20T21:44:27.308Z,100080.00
2022-08-20T21:46:59.033Z,100090.00
2022-08-20T21:49:31.970Z,100077.00
2022-08-20T21:52:01.706Z,100063.00
2022-08-20T21:54:31.904Z,100036.00
2022-08-20T21:57:08.118Z,100036.00
2022-08-20T21:59:38.468Z,100029.00
2022-08-20T22:02:06.592Z,100042.00
2022-08-20T22:04:35.616Z,100039.00
2022-08-20T22:07:04.484Z,100041.00
2022-08-20T22:09:34.394Z,100056.00
2022-08-20T22:12:03.847Z,100065.00
2022-08-20T22:14:31.429Z,100069.00
2022-08-20T22:16:58.847Z,100068.00
2022-08-20T22:19:25.908Z,100049.00
2022-08-20T22:21:56.010Z,100046.00
2022-08-20T22:24:25.956Z,100042.00
2022-08-20T22:26:52.887Z,100045.00
2022-08-20T22:29:20.024Z,100043.00
2022-08-20T22:31:47.602Z,100041.00
2022-08-20T22:34:18.415Z,100033.00
2022-08-20T22:36:45.764Z,100021.00
2022-08-20T22:39:12.950Z,100015.00
2022-08-20T22:41:41.286Z,100031.00
2022-08-20T22:44:08.433Z,100024.00
2022-08-20T22:46:44.978Z,100029.00
2022-08-20T22:49:21.259Z,100033.00
2022-08-20T22:51:48.270Z,100041.00
2022-08-20T22:54:22.501Z,100013.00
2022-08-20T22:56:51.055Z,100033.00
2022-08-20T22:59:19.897Z,100035.00
2022-08-20T23:01:47.171Z,100038.00
2022-08-20T23:04:29.247Z,100022.00
2022-08-20T23:06:58.245Z,100034.00
2022-08-20T23:09:27.241Z,100031.00
2022-08-20T23:11:54.645Z,100036.00
2022-08-20T23:14:22.105Z,100033.00
2022-08-20T23:17:00.775Z,100044.00
2022-08-20T23:19:28.135Z,100038.00
2022-08-20T23:21:55.240Z,100036.00
2022-08-20T23:24:22.828Z,100045.00
2022-08-20T23:26:52.855Z,100045.00
2022-08-20T23:29:25.890Z,100035.00
2022-08-20T23:31:56.083Z,100038.00
2022-08-20T23:34:24.895Z,100033.00
2022-08-20T23:36:53.851Z,100038.00
2022-08-20T23:39:21.093Z,100026.00
2022-08-20T23:41:48.333Z,100026.00
2022-08-20T23:44:26.458Z,100031.00
2022-08-20T23:46:58.436Z,100031.00
2022-08-20T23:49:27.780Z,100017.00
2022-08-20T23:51:55.523Z,100013.00
2022-08-20T23:54:22.618Z,100020.00
2022-08-20T23:56:49.762Z,100027.00
2022-08-20T23:59:17.223Z,100026.00
